Time;durP1;ratioP1;P1;durP2;ratioP2;P2;SDS_P1;SDS_P2;PMS_P1;PMS_P2;Temp;Humidity;BMP_temperature;BMP_pressure;BME280_temperature;BME280_humidity;BME280_pressure;Samples;Min_cycle;Max_cycle;Signal;HPM_P1;HPM_P2
2022/09/25 00:02:15;;;;;;;18.63;17.13;;;;;;;13.45;99.15;100111.50;5057159;28;20217;-79
2022/09/25 00:04:41;;;;;;;17.80;16.40;;;;;;;13.46;99.20;100105.38;5056663;28;20229;-78
2022/09/25 00:07:08;;;;;;;18.87;17.27;;;;;;;13.52;99.30;100109.53;5057182;28;20220;-80
2022/09/25 00:09:34;;;;;;;20.50;18.60;;;;;;;13.40;99.22;100112.56;5056342;28;20671;-79
2022/09/25 00:12:01;;;;;;;19.43;18.03;;;;;;;13.24;99.75;100107.00;5056622;28;20263;-79
2022/09/25 00:14:27;;;;;;;20.80;18.93;;;;;;;13.10;100.00;100084.78;5055934;28;20643;-79
2022/09/25 00:16:53;;;;;;;19.87;18.07;;;;;;;13.12;100.00;100061.09;5056409;28;20205;-79
2022/09/25 00:22:05;;;;;;;17.93;16.53;;;;;;;13.32;100.00;100073.56;5056707;28;20203;-79
2022/09/25 00:24:32;;;;;;;18.27;16.73;;;;;;;13.35;100.00;100081.28;5056314;28;20763;-79
2022/09/25 00:26:59;;;;;;;18.63;16.97;;;;;;;13.40;99.64;100094.22;5056277;28;20251;-79
2022/09/25 00:29:26;;;;;;;18.50;17.03;;;;;;;13.44;99.34;100101.94;5056411;28;20213;-79
2022/09/25 00:31:54;;;;;;;17.77;16.37;;;;;;;13.44;98.84;100114.22;5055896;28;20209;-79
2022/09/25 00:34:22;;;;;;;17.13;15.83;;;;;;;13.43;98.58;100121.19;5056449;28;20233;-80
2022/09/25 00:36:48;;;;;;;17.40;16.10;;;;;;;13.45;98.50;100124.63;5056308;28;20205;-79
2022/09/25 00:39:15;;;;;;;18.03;16.53;;;;;;;13.42;98.42;100126.47;5056646;28;20278;-79
2022/09/25 00:41:42;;;;;;;17.17;15.87;;;;;;;13.43;98.58;100126.44;5056164;28;20741;-79
2022/09/25 00:44:41;;;;;;;17.93;16.43;;;;;;;13.41;98.45;100133.50;5056170;28;20282;-79
2022/09/25 00:47:10;;;;;;;18.10;16.67;;;;;;;13.37;98.67;100124.03;5056586;28;20205;-80
2022/09/25 00:49:39;;;;;;;18.03;16.67;;;;;;;13.37;98.91;100131.91;5056246;28;20255;-79
2022/09/25 00:52:08;;;;;;;17.97;16.63;;;;;;;13.37;98.97;100128.44;5056112;28;20203;-79
2022/09/25 00:54:38;;;;;;;18.07;16.57;;;;;;;13.39;98.68;100121.38;5056186;28;20225;-79
2022/09/25 00:57:07;;;;;;;18.00;16.60;;;;;;;13.36;98.73;100122.34;5056481;28;20196;-80
2022/09/25 00:59:38;;;;;;;17.80;16.40;;;;;;;13.39;98.86;100118.75;5055814;28;20208;-80
2022/09/25 01:02:05;;;;;;;19.77;18.13;;;;;;;13.41;98.12;100130.88;5056700;28;20212;-79
2022/09/25 01:04:36;;;;;;;18.43;17.03;;;;;;;13.42;97.82;100131.72;5056130;28;20236;-79
2022/09/25 01:07:07;;;;;;;18.93;17.43;;;;;;;13.40;97.98;100137.06;5055969;28;20212;-79
2022/09/25 01:09:35;;;;;;;18.47;16.97;;;;;;;13.29;98.52;100136.53;5056402;28;20212;-79
2022/09/25 01:12:02;;;;;;;18.63;17.20;;;;;;;13.30;98.66;100126.03;5056593;28;20277;-79
2022/09/25 01:14:28;;;;;;;20.07;18.27;;;;;;;13.29;98.70;100121.69;5056079;28;20228;-79
2022/09/25 01:17:01;;;;;;;19.57;17.93;;;;;;;13.40;99.02;100118.69;5056539;28;20233;-79
2022/09/25 01:19:43;;;;;;;19.90;18.20;;;;;;;13.44;98.23;100129.94;5056030;28;20209;-80
2022/09/25 01:22:21;;;;;;;18.40;17.00;;;;;;;13.42;98.32;100130.00;5058774;28;20304;-80
2022/09/25 01:25:07;;;;;;;20.20;18.37;;;;;;;13.39;98.28;100130.09;5059751;28;20236;-79
2022/09/25 01:27:45;;;;;;;19.43;17.73;;;;;;;13.27;98.64;100125.25;5061117;28;20208;-79
2022/09/25 01:30:17;;;;;;;19.97;18.37;;;;;;;12.87;100.00;100110.91;5060057;28;20727;-79
2022/09/25 01:32:55;;;;;;;18.77;17.03;;;;;;;12.50;100.00;100070.22;5059750;28;20212;-79
2022/09/25 01:35:31;;;;;;;18.70;17.27;;;;;;;12.65;100.00;100046.16;5059435;28;20230;-79
2022/09/25 01:38:06;;;;;;;18.87;17.17;;;;;;;12.55;100.00;100042.13;5058973;28;20219;-81
2022/09/25 01:40:37;;;;;;;18.27;16.70;;;;;;;12.34;100.00;100037.59;5058801;28;20208;-82
2022/09/25 01:43:10;;;;;;;18.63;16.83;;;;;;;12.40;100.00;100040.88;5059416;28;20203;-79
2022/09/25 01:45:43;;;;;;;17.17;15.77;;;;;;;12.40;100.00;100050.47;5058805;28;20244;-79
2022/09/25 01:48:11;;;;;;;18.07;16.57;;;;;;;12.20;100.00;100040.66;5058857;28;20211;-79
2022/09/25 01:50:43;;;;;;;17.87;16.37;;;;;;;12.28;100.00;100036.03;5059285;28;20207;-79
2022/09/25 01:53:16;;;;;;;17.17;15.77;;;;;;;12.23;100.00;100037.94;5058627;28;20216;-79
2022/09/25 01:55:47;;;;;;;17.07;15.77;;;;;;;12.24;100.00;100037.88;5059253;28;20225;-81
2022/09/25 01:58:18;;;;;;;17.27;15.77;;;;;;;12.21;100.00;100034.50;5058512;28;20204;-79
2022/09/25 02:00:51;;;;;;;17.20;15.70;;;;;;;12.14;100.00;100038.25;5060378;28;20226;-80
2022/09/25 02:03:21;;;;;;;17.33;15.80;;;;;;;12.08;100.00;100032.28;5059876;28;20259;-79
2022/09/25 02:05:52;;;;;;;17.90;16.40;;;;;;;12.09;100.00;100028.78;5059844;28;20235;-79
2022/09/25 02:08:22;;;;;;;18.53;16.83;;;;;;;12.17;100.00;100036.41;5060369;28;20269;-79
2022/09/25 02:10:54;;;;;;;18.47;16.57;;;;;;;12.28;100.00;100041.28;5059810;28;20242;-79
2022/09/25 02:13:23;;;;;;;18.03;16.43;;;;;;;12.18;100.00;100039.84;5060280;28;20215;-79
2022/09/25 02:15:56;;;;;;;20.33;16.47;;;;;;;12.24;100.00;100039.66;5059208;28;20276;-79
2022/09/25 02:21:14;;;;;;;17.07;15.37;;;;;;;12.19;100.00;100045.06;5059255;28;20273;-79
2022/09/25 02:23:50;;;;;;;17.90;16.17;;;;;;;12.25;100.00;100047.47;5059341;28;20746;-79
2022/09/25 02:26:24;;;;;;;17.37;15.77;;;;;;;12.20;100.00;100061.59;5059768;28;20646;-80
2022/09/25 02:28:52;;;;;;;17.37;15.80;;;;;;;12.21;100.00;100060.69;5051408;28;20739;-79
2022/09/25 02:31:22;;;;;;;16.73;15.10;;;;;;;12.15;100.00;100061.75;5059047;28;20215;-80
2022/09/25 02:33:49;;;;;;;15.87;14.47;;;;;;;12.20;100.00;100070.28;5059119;28;20203;-80
2022/09/25 02:36:17;;;;;;;17.37;15.97;;;;;;;12.14;100.00;100069.66;5058712;28;20224;-80
2022/09/25 02:38:44;;;;;;;17.10;15.37;;;;;;;12.11;100.00;100068.00;5059598;28;20299;-79
2022/09/25 02:41:19;;;;;;;17.87;16.17;;;;;;;12.00;100.00;100072.69;5060087;28;20214;-80
2022/09/25 02:43:56;;;;;;;17.13;14.37;;;;;;;12.05;100.00;100082.09;5060056;28;20595;-80
2022/09/25 02:46:32;;;;;;;17.37;15.97;;;;;;;11.98;100.00;100082.34;5059767;28;20234;-80
2022/09/25 02:49:07;;;;;;;16.93;15.43;;;;;;;11.99;100.00;100082.31;5059820;28;20210;-80
2022/09/25 02:51:39;;;;;;;16.73;15.30;;;;;;;12.10;100.00;100080.19;5059626;28;20207;-80
2022/09/25 02:54:11;;;;;;;18.67;16.70;;;;;;;12.12;100.00;100088.00;5059570;28;20208;-80
2022/09/25 02:56:42;;;;;;;17.13;15.60;;;;;;;12.15;100.00;100090.53;5059144;28;20269;-80
2022/09/25 02:59:14;;;;;;;17.60;16.03;;;;;;;12.10;100.00;100088.03;5059266;28;20207;-80
2022/09/25 03:01:44;;;;;;;18.53;16.83;;;;;;;11.87;100.00;100087.84;5059554;28;20216;-80
2022/09/25 03:04:11;;;;;;;18.57;16.77;;;;;;;11.80;100.00;100066.25;5058943;28;20208;-80
2022/09/25 03:06:39;;;;;;;18.93;17.03;;;;;;;11.92;100.00;100075.53;5059652;28;20216;-79
2022/09/25 03:09:08;;;;;;;19.87;17.63;;;;;;;11.84;100.00;100083.56;5059220;28;20682;-80
2022/09/25 03:11:42;;;;;;;27.17;19.77;;;;;;;11.62;100.00;100085.97;5059227;28;20204;-79
2022/09/25 03:14:08;;;;;;;34.57;21.90;;;;;;;11.60;100.00;100092.16;5059492;28;20215;-80
2022/09/25 03:16:41;;;;;;;29.50;21.93;;;;;;;11.49;100.00;100101.13;5058774;28;20257;-80
2022/09/25 03:19:09;;;;;;;29.03;22.50;;;;;;;11.41;100.00;100100.50;5059610;28;20286;-80
2022/09/25 03:21:35;;;;;;;29.27;23.63;;;;;;;11.41;100.00;100103.09;5059683;28;20273;-80
2022/09/25 03:24:02;;;;;;;33.23;24.03;;;;;;;11.50;100.00;100112.47;5059260;28;20623;-80
2022/09/25 03:26:29;;;;;;;30.30;24.13;;;;;;;11.42;100.00;100119.66;5059276;28;20281;-80
2022/09/25 03:28:55;;;;;;;32.43;24.73;;;;;;;11.39;100.00;100111.91;5058424;28;20242;-80
2022/09/25 03:31:22;;;;;;;32.27;23.40;;;;;;;11.49;100.00;100115.97;5058737;28;20552;-80
2022/09/25 03:33:49;;;;;;;25.67;22.73;;;;;;;11.50;100.00;100115.94;5059194;28;20265;-80
2022/09/25 03:36:20;;;;;;;25.50;22.47;;;;;;;11.56;100.00;100124.50;5058406;28;20233;-80
2022/09/25 03:38:49;;;;;;;24.33;21.83;;;;;;;11.46;100.00;100121.28;5060207;28;20211;-80
2022/09/25 03:41:18;;;;;;;23.23;20.93;;;;;;;11.45;100.00;100124.78;5058001;28;20211;-79
2022/09/25 03:43:46;;;;;;;24.13;21.67;;;;;;;11.56;100.00;100116.66;5056964;28;20202;-79
2022/09/25 03:46:14;;;;;;;24.40;21.77;;;;;;;11.49;100.00;100121.19;5056074;28;20250;-79
2022/09/25 03:48:42;;;;;;;26.00;20.87;;;;;;;11.39;100.00;100125.81;5057546;28;20211;-79
2022/09/25 03:51:08;;;;;;;28.53;22.87;;;;;;;11.41;100.00;100113.56;5057734;28;20216;-79
2022/09/25 03:53:36;;;;;;;28.27;23.43;;;;;;;11.42;100.00;100124.91;5057219;28;20202;-79
2022/09/25 03:56:05;;;;;;;33.00;24.23;;;;;;;11.37;100.00;100122.38;5057007;28;20277;-79
2022/09/25 03:58:32;;;;;;;31.57;23.50;;;;;;;11.33;100.00;100119.00;5056720;28;20208;-79
2022/09/25 04:01:00;;;;;;;32.10;23.87;;;;;;;11.44;100.00;100126.56;5056686;28;20213;-79
2022/09/25 04:03:28;;;;;;;28.10;23.27;;;;;;;11.45;100.00;100119.56;5057384;28;20204;-79
2022/09/25 04:05:55;;;;;;;29.77;23.50;;;;;;;11.48;100.00;100112.50;5056581;28;20645;-79
2022/09/25 04:08:21;;;;;;;33.30;23.73;;;;;;;11.39;100.00;100111.91;5057320;28;20214;-79
2022/09/25 04:10:49;;;;;;;27.80;24.23;;;;;;;11.43;100.00;100116.97;5056627;28;20209;-79
2022/09/25 04:13:18;;;;;;;28.93;22.97;;;;;;;11.54;100.00;100111.47;5056576;28;20205;-79
2022/09/25 04:15:45;;;;;;;31.50;23.63;;;;;;;11.41;100.00;100112.72;5056745;28;20339;-79
2022/09/25 04:18:11;;;;;;;24.53;21.93;;;;;;;11.41;100.00;100105.72;5056598;28;20215;-79
2022/09/25 04:20:38;;;;;;;25.60;22.20;;;;;;;11.47;100.00;100110.78;5057295;28;20259;-79
2022/09/25 04:23:04;;;;;;;29.27;22.37;;;;;;;11.35;100.00;100102.44;5057939;28;20207;-79
2022/09/25 04:25:31;;;;;;;25.67;21.93;;;;;;;11.49;100.00;100110.72;5056252;28;20230;-79
2022/09/25 04:27:59;;;;;;;28.10;21.87;;;;;;;11.46;100.00;100103.00;5056375;28;20260;-79
2022/09/25 04:30:27;;;;;;;27.10;22.50;;;;;;;11.47;100.00;100102.09;5057066;28;20268;-79
2022/09/25 04:35:38;;;;;;;28.50;22.73;;;;;;;11.44;100.00;100105.66;5056258;28;20223;-79
2022/09/25 04:38:05;;;;;;;24.63;21.87;;;;;;;11.40;100.00;100104.03;5057106;28;20215;-79
2022/09/25 04:40:32;;;;;;;31.80;21.73;;;;;;;11.44;100.00;100104.78;5057319;28;20274;-79
2022/09/25 04:43:01;;;;;;;27.67;22.07;;;;;;;11.49;100.00;100110.72;5057629;28;20207;-79
2022/09/25 04:45:29;;;;;;;23.90;21.30;;;;;;;11.40;100.00;100116.25;5056343;28;20231;-79
2022/09/25 04:47:58;;;;;;;28.70;20.87;;;;;;;11.37;100.00;100111.09;5056944;28;20218;-79
2022/09/25 04:50:26;;;;;;;27.07;22.23;;;;;;;11.41;100.00;100110.94;5057014;28;20264;-79
2022/09/25 04:52:53;;;;;;;24.13;21.13;;;;;;;11.42;100.00;100111.81;5057284;28;20205;-79
2022/09/25 04:55:23;;;;;;;27.00;21.00;;;;;;;11.45;100.00;100115.19;5057025;28;20223;-79
2022/09/25 04:57:51;;;;;;;23.70;20.97;;;;;;;11.38;100.00;100116.28;5060279;28;20215;-79
2022/09/25 05:00:19;;;;;;;28.80;20.73;;;;;;;11.39;100.00;100114.50;5061195;28;20375;-79
2022/09/25 05:02:46;;;;;;;27.33;22.00;;;;;;;11.41;100.00;100118.78;5061148;28;20724;-79
2022/09/25 05:05:13;;;;;;;23.47;20.97;;;;;;;11.35;100.00;100113.72;5061434;28;20227;-80
2022/09/25 05:07:39;;;;;;;23.97;21.53;;;;;;;11.31;100.00;100115.56;5061074;28;20206;-79
2022/09/25 05:10:07;;;;;;;28.03;21.97;;;;;;;11.33;100.00;100116.38;5060839;28;20211;-79
2022/09/25 05:12:34;;;;;;;30.30;23.30;;;;;;;11.32;100.00;100117.28;5060933;28;20717;-79
2022/09/25 05:15:01;;;;;;;28.93;22.07;;;;;;;11.35;100.00;100124.19;5062216;28;20235;-79
2022/09/25 05:17:28;;;;;;;23.73;21.33;;;;;;;11.31;100.00;100120.78;5062206;28;20575;-79
2022/09/25 05:19:55;;;;;;;24.03;21.70;;;;;;;11.39;100.00;100117.97;5062461;28;20210;-79
2022/09/25 05:22:21;;;;;;;27.30;21.07;;;;;;;11.31;100.00;100126.00;5062129;28;20251;-79
2022/09/25 05:24:48;;;;;;;27.97;22.43;;;;;;;11.38;100.00;100123.22;5061857;28;20230;-79
2022/09/25 05:27:14;;;;;;;23.87;21.33;;;;;;;11.32;100.00;100121.66;5061544;28;20231;-79
2022/09/25 05:29:40;;;;;;;24.40;21.30;;;;;;;11.38;100.00;100120.63;5059169;28;20767;-79
2022/09/25 05:32:07;;;;;;;23.40;20.73;;;;;;;11.40;100.00;100124.06;5059434;28;20210;-79
2022/09/25 05:34:35;;;;;;;31.70;22.13;;;;;;;11.34;100.00;100122.47;5059411;28;20782;-79
2022/09/25 05:37:02;;;;;;;34.20;22.30;;;;;;;11.34;100.00;100125.09;5059555;28;20200;-79
2022/09/25 05:39:29;;;;;;;25.50;22.50;;;;;;;11.35;100.00;100126.78;5060150;28;20204;-79
2022/09/25 05:41:55;;;;;;;24.67;21.33;;;;;;;11.32;100.00;100125.13;5059662;28;20626;-79
2022/09/25 05:44:23;;;;;;;24.73;20.33;;;;;;;11.38;100.00;100128.47;5059765;28;20733;-79
2022/09/25 05:46:50;;;;;;;24.13;19.90;;;;;;;11.29;100.00;100126.97;5060004;28;20720;-79
2022/09/25 05:49:16;;;;;;;30.30;20.47;;;;;;;11.30;100.00;100126.09;5060040;28;20235;-79
2022/09/25 05:51:44;;;;;;;24.87;20.30;;;;;;;11.28;100.00;100126.13;5060038;28;20233;-79
2022/09/25 05:54:11;;;;;;;25.07;19.93;;;;;;;11.29;100.00;100135.66;5060194;28;20689;-79
2022/09/25 05:56:37;;;;;;;21.00;18.77;;;;;;;11.38;100.00;100137.19;5059042;28;20253;-79
2022/09/25 05:59:03;;;;;;;21.63;18.37;;;;;;;11.40;100.00;100127.53;5059788;28;20222;-79
2022/09/25 06:01:30;;;;;;;21.23;17.00;;;;;;;11.37;100.00;100130.22;5060413;28;20264;-79
2022/09/25 06:03:56;;;;;;;19.00;17.03;;;;;;;11.40;100.00;100132.75;5059787;28;20215;-79
2022/09/25 06:06:22;;;;;;;18.20;16.20;;;;;;;11.34;100.00;100130.31;5059570;28;20224;-79
2022/09/25 06:08:53;;;;;;;17.37;15.20;;;;;;;11.35;100.00;100125.94;5059033;28;20261;-79
2022/09/25 06:11:19;;;;;;;15.57;13.13;;;;;;;11.36;100.00;100131.13;5059746;28;20215;-79
2022/09/25 06:13:49;;;;;;;15.73;13.03;;;;;;;11.31;100.00;100122.56;5060513;28;20233;-79
2022/09/25 06:16:18;;;;;;;15.83;12.97;;;;;;;11.33;100.00;100126.81;5059239;28;20238;-80
2022/09/25 06:18:45;;;;;;;18.30;12.53;;;;;;;11.41;100.00;100125.78;5060080;28;20209;-79
2022/09/25 06:21:12;;;;;;;13.80;11.33;;;;;;;11.44;100.00;100128.31;5060548;28;20211;-79
2022/09/25 06:23:38;;;;;;;13.30;12.03;;;;;;;11.46;100.00;100135.22;5060227;28;20208;-79
2022/09/25 06:26:08;;;;;;;11.97;10.70;;;;;;;11.41;100.00;100136.22;5060121;28;20225;-80
2022/09/25 06:28:34;;;;;;;12.97;9.77;;;;;;;11.46;100.00;100140.44;5059744;28;20705;-81
2022/09/25 06:31:02;;;;;;;14.00;10.43;;;;;;;11.49;100.00;100140.34;5059466;28;20216;-79
2022/09/25 06:33:29;;;;;;;12.53;10.50;;;;;;;11.38;100.00;100133.69;5059398;28;20668;-78
2022/09/25 06:35:55;;;;;;;12.13;10.07;;;;;;;11.46;100.00;100131.75;5056232;28;20232;-78
2022/09/25 06:38:21;;;;;;;12.27;11.07;;;;;;;11.47;100.00;100123.00;5056094;28;20207;-78
2022/09/25 06:40:48;;;;;;;10.30;9.20;;;;;;;11.43;100.00;100130.06;5055994;28;20401;-78
2022/09/25 06:43:16;;;;;;;11.47;10.13;;;;;;;11.43;100.00;100121.34;5056057;28;20283;-79
2022/09/25 06:45:43;;;;;;;11.07;9.87;;;;;;;11.47;100.00;100126.44;5056831;28;20230;-79
2022/09/25 06:48:12;;;;;;;10.37;9.37;;;;;;;11.53;100.00;100128.94;5057494;28;20321;-78
2022/09/25 06:50:42;;;;;;;16.00;9.93;;;;;;;11.61;100.00;100127.84;5058413;28;20203;-79
2022/09/25 06:53:10;;;;;;;10.63;9.63;;;;;;;11.59;100.00;100137.47;5057661;28;20262;-78
2022/09/25 06:55:36;;;;;;;10.67;8.40;;;;;;;11.77;100.00;100142.19;5057482;28;20395;-79
2022/09/25 06:58:04;;;;;;;10.37;9.30;;;;;;;11.62;100.00;100153.94;5057746;28;20197;-78
2022/09/25 07:00:32;;;;;;;9.73;8.57;;;;;;;11.62;100.00;100158.31;5057433;28;20209;-79
2022/09/25 07:05:46;;;;;;;12.90;9.07;;;;;;;11.72;100.00;100154.53;5057851;28;20292;-79
2022/09/25 07:08:15;;;;;;;13.13;9.23;;;;;;;11.85;100.00;100149.81;5057619;28;20207;-79
2022/09/25 07:10:48;;;;;;;20.03;9.70;;;;;;;11.77;100.00;100139.56;5058472;28;20210;-78
2022/09/25 07:13:15;;;;;;;18.47;9.17;;;;;;;11.80;100.00;100146.47;5049605;28;20201;-79
2022/09/25 07:15:43;;;;;;;10.40;9.07;;;;;;;11.69;100.00;100147.66;5046298;28;20219;-78
2022/09/25 07:18:09;;;;;;;13.13;8.67;;;;;;;11.71;100.00;100145.84;5045560;28;20246;-78
2022/09/25 07:20:36;;;;;;;10.17;9.07;;;;;;;11.64;100.00;100154.75;5048735;28;20204;-79
2022/09/25 07:23:03;;;;;;;9.77;8.87;;;;;;;11.65;100.00;100148.59;5048634;28;20614;-81
2022/09/25 07:25:30;;;;;;;10.03;9.13;;;;;;;11.70;100.00;100140.66;5047276;28;20233;-79
2022/09/25 07:27:56;;;;;;;9.90;8.63;;;;;;;11.76;100.00;100153.56;5054181;28;20209;-79
2022/09/25 07:30:22;;;;;;;12.43;9.30;;;;;;;11.78;100.00;100159.59;5052761;28;20208;-79
2022/09/25 07:32:50;;;;;;;9.97;8.50;;;;;;;11.79;100.00;100168.28;5046256;28;20205;-75
2022/09/25 07:35:17;;;;;;;10.03;9.10;;;;;;;11.97;100.00;100170.44;5041585;28;20275;-75
2022/09/25 07:37:43;;;;;;;10.57;9.57;;;;;;;11.91;100.00;100184.53;5042149;28;20249;-74
2022/09/25 07:40:12;;;;;;;13.10;9.23;;;;;;;11.99;100.00;100194.78;5043224;28;20199;-74
2022/09/25 07:42:38;;;;;;;17.43;10.07;;;;;;;11.97;100.00;100211.41;5041782;28;20216;-74
2022/09/25 07:45:05;;;;;;;9.63;8.63;;;;;;;11.99;100.00;100217.44;5041150;28;20779;-79
2022/09/25 07:47:32;;;;;;;12.43;9.37;;;;;;;12.02;100.00;100212.16;5043027;28;20640;-74
2022/09/25 07:50:00;;;;;;;10.13;8.83;;;;;;;12.15;100.00;100210.00;5041814;28;20258;-74
2022/09/25 07:52:26;;;;;;;10.97;9.97;;;;;;;12.21;100.00;100209.84;5049908;28;20229;-74
2022/09/25 07:54:53;;;;;;;12.70;8.70;;;;;;;12.24;100.00;100209.75;5051303;28;20286;-75
2022/09/25 07:57:20;;;;;;;11.80;9.30;;;;;;;12.09;100.00;100206.69;5055960;28;20627;-85
2022/09/25 07:59:46;;;;;;;9.63;8.77;;;;;;;12.12;100.00;100209.19;5055491;28;20233;-78
2022/09/25 08:02:13;;;;;;;9.13;8.30;;;;;;;12.01;100.00;100227.00;5052762;28;20574;-77
2022/09/25 08:04:39;;;;;;;13.20;8.97;;;;;;;12.07;100.00;100221.59;5048536;28;20231;-77
2022/09/25 08:07:07;;;;;;;14.20;10.47;;;;;;;12.00;100.00;100227.03;5050816;28;20229;-77
2022/09/25 08:09:33;;;;;;;9.80;9.03;;;;;;;11.96;100.00;100226.25;5051135;28;20655;-77
2022/09/25 08:12:01;;;;;;;11.40;8.67;;;;;;;12.03;100.00;100227.81;5052086;28;20241;-78
2022/09/25 08:14:27;;;;;;;11.47;9.27;;;;;;;12.19;100.00;100222.09;5051428;28;20282;-79
2022/09/25 08:16:54;;;;;;;10.83;9.33;;;;;;;12.19;100.00;100220.38;5052678;28;20278;-77
2022/09/25 08:19:22;;;;;;;11.10;8.30;;;;;;;12.15;100.00;100226.59;5051369;28;20218;-77
2022/09/25 08:21:49;;;;;;;10.00;8.60;;;;;;;12.24;100.00;100226.31;5051737;28;20209;-77
2022/09/25 08:24:16;;;;;;;9.50;8.67;;;;;;;12.05;100.00;100239.09;5051714;28;20231;-77
2022/09/25 08:26:43;;;;;;;12.87;8.67;;;;;;;12.03;100.00;100240.00;5051443;28;20297;-76
2022/09/25 08:29:10;;;;;;;11.37;9.60;;;;;;;12.05;100.00;100239.09;5051155;28;20694;-76
2022/09/25 08:31:37;;;;;;;11.00;9.80;;;;;;;12.06;100.00;100235.53;5051811;28;20713;-78
2022/09/25 08:34:03;;;;;;;11.30;10.20;;;;;;;12.10;99.28;100252.88;5052078;28;20213;-74
2022/09/25 08:36:30;;;;;;;11.03;9.93;;;;;;;12.04;98.86;100279.22;5051012;28;20722;-74
2022/09/25 08:38:59;;;;;;;11.27;9.40;;;;;;;12.07;98.27;100281.75;5051560;28;20258;-75
2022/09/25 08:41:30;;;;;;;14.83;10.93;;;;;;;12.17;99.07;100269.28;5051419;28;20231;-75
2022/09/25 08:44:03;;;;;;;10.17;9.37;;;;;;;12.10;98.49;100279.03;5051429;28;20262;-74
2022/09/25 08:49:29;;;;;;;11.00;10.03;;;;;;;12.09;99.12;100251.16;5025330;28;20207;-75
2022/09/25 08:52:03;;;;;;;11.63;9.97;;;;;;;12.02;98.02;100273.16;5052050;28;20211;-78
2022/09/25 08:54:31;;;;;;;12.03;10.87;;;;;;;12.21;97.17;100288.34;5051462;28;20224;-76
2022/09/25 08:57:02;;;;;;;9.50;8.60;;;;;;;12.06;96.08;100314.03;5051453;28;20249;-75
2022/09/25 08:59:34;;;;;;;11.73;9.80;;;;;;;12.19;97.24;100292.75;5051220;28;20208;-74
2022/09/25 09:02:03;;;;;;;10.43;9.37;;;;;;;12.19;96.85;100303.22;5051045;28;20636;-74
2022/09/25 09:04:32;;;;;;;9.83;8.57;;;;;;;12.08;95.50;100322.69;5050883;28;20741;-74
2022/09/25 09:07:05;;;;;;;11.43;9.40;;;;;;;11.99;96.32;100322.09;5050748;28;20226;-73
2022/09/25 09:09:39;;;;;;;9.57;8.40;;;;;;;12.00;95.70;100322.06;5051143;28;20280;-75
2022/09/25 09:12:12;;;;;;;9.40;8.40;;;;;;;12.07;96.15;100315.75;5051084;28;20212;-74
2022/09/25 09:14:44;;;;;;;8.27;7.63;;;;;;;12.21;96.03;100315.38;5051060;28;20366;-76
2022/09/25 09:17:17;;;;;;;8.70;7.90;;;;;;;12.29;94.36;100346.59;5051405;28;20205;-73
2022/09/25 09:19:47;;;;;;;10.03;7.97;;;;;;;12.31;94.86;100343.00;5050724;28;20212;-73
2022/09/25 09:22:18;;;;;;;8.70;7.73;;;;;;;12.28;94.68;100343.09;5050788;28;20204;-74
2022/09/25 09:24:54;;;;;;;9.33;8.53;;;;;;;12.41;95.44;100325.28;5050845;28;20636;-74
2022/09/25 09:27:37;;;;;;;9.87;8.90;;;;;;;12.52;95.04;100323.22;5050684;28;20278;-74
2022/09/25 09:30:12;;;;;;;9.47;7.33;;;;;;;12.58;94.03;100339.66;5044762;28;20229;-74
2022/09/25 09:32:51;;;;;;;8.00;7.40;;;;;;;12.64;nan;100344.72;5050779;28;20673;-75
2022/09/25 09:35:30;;;;;;;8.60;7.80;;;;;;;12.50;94.01;100339.88;5050580;28;20709;-74
2022/09/25 09:38:06;;;;;;;9.33;7.03;;;;;;;12.68;94.40;100338.47;5051221;28;20727;-74
2022/09/25 09:40:50;;;;;;;8.13;7.37;;;;;;;12.57;94.53;100332.72;5050648;28;20216;-75
2022/09/25 09:43:31;;;;;;;7.53;6.93;;;;;;;12.63;94.52;100329.91;5051775;28;20216;-75
2022/09/25 09:46:05;;;;;;;7.50;6.77;;;;;;;12.61;94.66;100316.00;5055256;28;20282;-78
2022/09/25 09:48:39;;;;;;;8.43;7.23;;;;;;;12.66;94.88;100317.56;5054392;28;20297;-74
2022/09/25 09:51:09;;;;;;;6.83;6.00;;;;;;;12.60;93.22;100333.47;5054662;28;20682;-74
2022/09/25 09:53:41;;;;;;;7.77;6.87;;;;;;;12.62;93.40;100334.28;5054392;28;20208;-75
2022/09/25 09:56:13;;;;;;;7.87;6.30;;;;;;;12.68;94.52;100330.63;5053965;28;20474;-76
2022/09/25 09:58:47;;;;;;;7.43;6.80;;;;;;;12.83;94.04;100314.47;5054099;28;20202;-76
2022/09/25 10:01:15;;;;;;;7.43;6.73;;;;;;;12.90;93.26;100339.59;5054509;28;20205;-76
2022/09/25 10:03:41;;;;;;;6.83;6.27;;;;;;;12.84;94.11;100331.91;5054219;28;20201;-76
2022/09/25 10:06:11;;;;;;;7.30;6.60;;;;;;;12.73;94.45;100318.25;5054148;28;20286;-76
2022/09/25 10:08:38;;;;;;;7.90;7.00;;;;;;;12.76;94.78;100304.22;5053941;28;20776;-76
2022/09/25 10:11:13;;;;;;;8.63;7.73;;;;;;;12.59;94.16;100304.72;5053773;28;20211;-75
2022/09/25 10:13:42;;;;;;;7.70;7.00;;;;;;;12.67;94.62;100294.88;5054052;28;20219;-75
2022/09/25 10:16:12;;;;;;;7.40;6.83;;;;;;;12.55;93.99;100306.56;5053752;28;20225;-75
2022/09/25 10:18:42;;;;;;;7.93;7.03;;;;;;;12.65;94.37;100302.78;5054111;28;20716;-75
2022/09/25 10:21:13;;;;;;;8.10;7.33;;;;;;;12.73;94.82;100296.47;5054069;28;20215;-75
2022/09/25 10:23:46;;;;;;;8.50;7.30;;;;;;;12.80;93.02;100313.69;5053726;28;20267;-75
2022/09/25 10:26:24;;;;;;;7.53;6.83;;;;;;;12.81;92.65;100336.38;5053567;28;20236;-76
2022/09/25 10:28:52;;;;;;;7.73;6.90;;;;;;;12.79;93.07;100333.78;5045709;28;20233;-76
2022/09/25 10:31:20;;;;;;;8.33;7.53;;;;;;;12.71;93.67;100323.53;5053503;28;20586;-76
2022/09/25 10:34:00;;;;;;;8.40;7.60;;;;;;;12.93;93.57;100320.28;5053631;28;20279;-76
2022/09/25 10:36:37;;;;;;;7.40;6.70;;;;;;;13.07;92.44;100338.19;5053361;28;20208;-76
2022/09/25 10:39:05;;;;;;;9.10;7.43;;;;;;;13.09;92.14;100371.31;5053875;28;20262;-76
2022/09/25 10:41:42;;;;;;;7.77;7.17;;;;;;;12.98;92.73;100365.53;5061782;28;20203;-76
2022/09/25 10:44:22;;;;;;;8.30;7.63;;;;;;;12.96;91.28;100388.28;5073571;28;20291;-76
2022/09/25 10:52:49;;;;;;;8.13;6.97;;;;;;;13.28;90.83;100400.44;5011996;28;20241;-77
2022/09/25 10:55:24;;;;;;;8.30;7.50;;;;;;;13.34;90.47;100407.31;5010528;28;20237;-77
2022/09/25 10:57:57;;;;;;;8.57;7.87;;;;;;;13.32;90.33;100416.97;5032327;28;20211;-77
2022/09/25 11:00:26;;;;;;;8.53;7.53;;;;;;;13.36;90.86;100392.38;5054793;28;20606;-78
2022/09/25 11:02:56;;;;;;;7.70;7.00;;;;;;;13.35;89.60;100414.25;5054322;28;20235;-77
2022/09/25 11:05:27;;;;;;;7.60;5.30;;;;;;;13.29;88.75;100444.13;5053517;28;20594;-78
2022/09/25 11:07:58;;;;;;;6.07;5.70;;;;;;;13.20;87.21;100474.97;5053771;28;20239;-78
2022/09/25 11:10:28;;;;;;;7.00;6.33;;;;;;;13.07;87.35;100488.41;5053761;28;20230;-77
2022/09/25 11:12:55;;;;;;;7.13;6.53;;;;;;;13.26;87.27;100487.88;5053754;28;20575;-78
2022/09/25 11:15:26;;;;;;;5.70;5.30;;;;;;;13.11;87.07;100497.06;5053828;28;20231;-78
2022/09/25 11:17:54;;;;;;;6.70;6.10;;;;;;;13.31;87.79;100475.53;5054010;28;20298;-78
2022/09/25 11:20:28;;;;;;;6.37;5.77;;;;;;;13.29;87.86;100472.06;5054073;28;20211;-78
2022/09/25 11:23:03;;;;;;;6.73;6.23;;;;;;;13.22;87.53;100465.28;5053795;28;20237;-78
2022/09/25 11:25:36;;;;;;;6.70;6.30;;;;;;;13.33;87.54;100463.25;5053411;28;20293;-78
2022/09/25 11:28:11;;;;;;;5.90;5.40;;;;;;;13.29;86.37;100469.44;5053281;28;20235;-77
2022/09/25 11:30:42;;;;;;;5.63;5.23;;;;;;;13.15;86.18;100482.13;5053582;28;20208;-77
2022/09/25 11:33:22;;;;;;;5.47;4.97;;;;;;;13.13;87.13;100471.66;5053659;28;20215;-77
2022/09/25 11:35:53;;;;;;;5.13;4.70;;;;;;;13.22;86.95;100474.03;5053034;28;20731;-77
2022/09/25 11:41:21;;;;;;;6.40;5.37;;;;;;;13.29;87.42;100444.13;5052955;28;20200;-77
2022/09/25 11:44:00;;;;;;;5.10;4.70;;;;;;;13.39;87.28;100433.38;5053307;28;20295;-77